Time;durP1;ratioP1;P1;durP2;ratioP2;P2;SDS_P1;SDS_P2;PMS_P1;PMS_P2;Temp;Humidity;BMP_temperature;BMP_pressure;BME280_temperature;BME280_humidity;BME280_pressure;Samples;Min_cycle;Max_cycle;Signal;HPM_P1;HPM_P2
2023/12/13 00:04:03;;;;;;;29.80;18.30;;;;;;;5.20;69.19;98075.23;234084;212;139451;-58
2023/12/13 00:09:09;;;;;;;29.30;17.50;;;;;;;5.21;69.33;98059.02;234530;212;137598;-57
2023/12/13 00:14:12;;;;;;;30.30;18.90;;;;;;;5.25;69.60;98037.34;234336;213;149316;-57
2023/12/13 00:19:16;;;;;;;34.30;19.30;;;;;;;5.27;69.77;98033.18;234412;212;138994;-57
2023/12/13 00:24:19;;;;;;;34.80;19.90;;;;;;;5.31;69.80;98029.30;234340;214;137582;-56
2023/12/13 00:29:22;;;;;;;36.60;20.60;;;;;;;5.30;69.76;98020.86;234517;215;149028;-57
2023/12/13 00:34:25;;;;;;;35.30;20.50;;;;;;;5.27;69.78;98018.77;234252;214;138637;-57
2023/12/13 00:39:29;;;;;;;37.30;20.10;;;;;;;5.25;69.82;98013.22;234454;213;139718;-56
2023/12/13 00:44:32;;;;;;;37.30;20.60;;;;;;;5.25;69.90;98007.48;234440;214;148115;-56
2023/12/13 00:49:35;;;;;;;36.20;20.30;;;;;;;5.30;69.96;98003.80;234535;214;138431;-57
2023/12/13 00:54:38;;;;;;;35.00;21.40;;;;;;;5.39;69.74;97995.21;234469;214;137634;-56
2023/12/13 00:59:41;;;;;;;37.80;20.40;;;;;;;5.51;69.44;97974.99;234585;214;147658;-56
2023/12/13 01:04:45;;;;;;;34.20;20.60;;;;;;;5.57;69.30;97972.71;234477;211;138565;-57
2023/12/13 01:09:49;;;;;;;37.70;20.80;;;;;;;5.58;69.14;97958.60;234444;215;137358;-56
2023/12/13 01:14:53;;;;;;;33.80;19.90;;;;;;;5.58;69.03;97955.23;234388;212;147624;-56
2023/12/13 01:19:56;;;;;;;33.00;19.30;;;;;;;5.56;69.03;97955.88;234056;211;138886;-57
2023/12/13 01:25:02;;;;;;;33.60;19.60;;;;;;;5.53;69.09;97953.06;234540;214;137972;-57
2023/12/13 01:30:08;;;;;;;34.50;19.10;;;;;;;5.55;69.13;97961.20;233892;212;148047;-57
2023/12/13 01:35:11;;;;;;;34.90;19.50;;;;;;;5.59;68.90;97965.02;234341;215;139485;-57
2023/12/13 01:40:15;;;;;;;29.70;18.20;;;;;;;5.55;69.01;97957.88;234552;214;137915;-57
2023/12/13 01:45:18;;;;;;;35.70;19.70;;;;;;;5.48;69.03;97947.17;234435;207;147618;-56
2023/12/13 01:50:25;;;;;;;34.40;20.10;;;;;;;5.42;69.07;97943.67;234443;207;140002;-57
2023/12/13 01:55:28;;;;;;;36.50;19.80;;;;;;;5.39;69.21;97934.37;234577;214;137466;-57
2023/12/13 02:00:32;;;;;;;28.80;18.10;;;;;;;5.38;69.22;97925.09;234373;214;148515;-57
2023/12/13 02:05:36;;;;;;;33.70;18.20;;;;;;;5.41;68.95;97923.34;234611;214;138670;-57
2023/12/13 02:10:39;;;;;;;33.70;19.60;;;;;;;5.50;68.83;97910.66;234445;212;137721;-56
2023/12/13 02:15:44;;;;;;;34.60;20.20;;;;;;;5.61;68.50;97903.31;234459;215;147595;-60
2023/12/13 02:20:50;;;;;;;34.00;18.50;;;;;;;5.69;68.09;97904.41;234050;215;139787;-60
2023/12/13 02:26:00;;;;;;;34.10;19.20;;;;;;;5.68;67.77;97900.41;234256;215;137899;-57
2023/12/13 02:31:04;;;;;;;35.40;19.30;;;;;;;5.62;67.88;97891.64;233998;212;147604;-56
2023/12/13 02:36:08;;;;;;;35.40;19.00;;;;;;;5.56;67.72;97898.34;234544;214;138925;-56
2023/12/13 02:41:11;;;;;;;32.70;18.50;;;;;;;5.53;67.93;97876.05;234257;212;137551;-57
2023/12/13 02:46:14;;;;;;;28.70;17.50;;;;;;;5.52;67.90;97858.45;234537;214;148164;-57
2023/12/13 02:51:17;;;;;;;33.20;18.00;;;;;;;5.53;67.98;97859.30;234477;214;138970;-57
2023/12/13 02:56:21;;;;;;;28.90;17.70;;;;;;;5.52;67.93;97861.33;234504;212;136604;-56
2023/12/13 03:01:24;;;;;;;28.60;16.80;;;;;;;5.47;67.93;97851.73;234445;214;148179;-58
2023/12/13 03:06:27;;;;;;;28.50;16.90;;;;;;;5.44;67.97;97841.02;234546;214;139810;-56
2023/12/13 03:11:30;;;;;;;25.90;16.00;;;;;;;5.46;68.07;97838.43;234440;212;137203;-58
2023/12/13 03:16:33;;;;;;;25.90;15.10;;;;;;;5.46;67.95;97837.91;234393;213;148216;-57
2023/12/13 03:21:37;;;;;;;25.10;14.80;;;;;;;5.43;67.90;97826.47;234276;214;138995;-56
2023/12/13 03:26:40;;;;;;;23.10;14.30;;;;;;;5.41;67.84;97830.65;234467;213;137891;-57
2023/12/13 03:31:43;;;;;;;22.00;13.30;;;;;;;5.39;68.11;97831.64;234449;213;147639;-57
2023/12/13 03:36:46;;;;;;;22.10;12.80;;;;;;;5.44;68.11;97825.53;234427;213;139517;-58
2023/12/13 03:41:50;;;;;;;21.50;13.10;;;;;;;5.53;68.02;97823.21;234656;213;137842;-57
2023/12/13 03:46:57;;;;;;;22.10;13.00;;;;;;;5.62;67.87;97817.60;234092;211;147529;-58
2023/12/13 03:52:00;;;;;;;21.20;12.60;;;;;;;5.69;67.67;97807.30;234316;212;139091;-56
2023/12/13 03:57:03;;;;;;;26.60;12.60;;;;;;;5.73;67.40;97804.73;234450;213;137474;-56
2023/12/13 04:02:07;;;;;;;20.90;12.30;;;;;;;5.73;67.27;97795.23;234426;213;148256;-57
2023/12/13 04:07:12;;;;;;;18.50;11.60;;;;;;;5.74;67.17;97790.80;234530;214;139524;-58
2023/12/13 04:12:16;;;;;;;22.70;11.50;;;;;;;5.73;67.00;97787.50;234502;212;137073;-57
2023/12/13 04:17:20;;;;;;;17.30;11.60;;;;;;;5.72;67.00;97790.90;234536;215;147520;-57
2023/12/13 04:22:23;;;;;;;18.50;11.60;;;;;;;5.70;66.94;97783.46;234287;213;138548;-57
2023/12/13 04:27:26;;;;;;;20.00;11.40;;;;;;;5.66;67.05;97781.80;234348;214;137828;-56
2023/12/13 04:32:29;;;;;;;18.80;11.10;;;;;;;5.62;67.25;97775.67;234337;214;148248;-57
2023/12/13 04:37:32;;;;;;;16.90;10.50;;;;;;;5.59;67.32;97774.66;234333;207;138952;-57
2023/12/13 04:42:36;;;;;;;17.60;10.20;;;;;;;5.56;67.35;97764.80;234473;215;137858;-57
2023/12/13 04:47:39;;;;;;;18.50;10.80;;;;;;;5.56;67.28;97757.94;234499;215;147662;-57
2023/12/13 04:52:42;;;;;;;14.80;10.10;;;;;;;5.59;67.28;97748.63;234196;213;139513;-57
2023/12/13 04:57:45;;;;;;;17.10;10.00;;;;;;;5.58;67.28;97747.43;234417;215;138466;-57
2023/12/13 05:02:49;;;;;;;16.40;10.20;;;;;;;5.60;67.20;97738.33;234491;212;147301;-54
2023/12/13 05:07:52;;;;;;;15.20;10.00;;;;;;;5.63;67.20;97729.17;233743;212;139038;-56
2023/12/13 05:12:55;;;;;;;253.20;174.70;;;;;;;5.64;67.70;97728.79;234498;214;138994;-56
2023/12/13 05:17:58;;;;;;;40.10;25.60;;;;;;;5.73;67.70;97728.23;233761;212;147542;-57
2023/12/13 05:23:02;;;;;;;54.30;37.60;;;;;;;5.79;67.41;97723.26;234509;212;142185;-56
2023/12/13 05:28:05;;;;;;;217.00;146.80;;;;;;;5.86;67.23;97714.31;234497;213;137467;-57
2023/12/13 05:33:08;;;;;;;15.20;8.50;;;;;;;6.01;67.39;97720.45;234355;215;148689;-57
2023/12/13 05:38:12;;;;;;;11.00;7.40;;;;;;;6.08;66.49;97715.26;234359;213;138779;-56
2023/12/13 05:43:16;;;;;;;13.10;7.90;;;;;;;6.01;66.20;97716.92;234477;212;137195;-57
2023/12/13 05:48:20;;;;;;;14.40;8.60;;;;;;;5.93;66.23;97721.45;234542;214;147297;-57
2023/12/13 05:53:23;;;;;;;14.00;9.10;;;;;;;5.88;66.43;97724.08;234458;213;138984;-57
2023/12/13 05:58:26;;;;;;;12.40;8.10;;;;;;;5.83;66.65;97714.55;233676;212;137251;-53
2023/12/13 06:03:30;;;;;;;13.60;8.20;;;;;;;5.78;66.77;97713.30;234470;213;147560;-56
2023/12/13 06:08:33;;;;;;;11.30;7.70;;;;;;;5.75;67.02;97709.45;234272;212;137791;-55
2023/12/13 06:13:36;;;;;;;12.10;7.70;;;;;;;5.72;66.90;97699.59;234352;213;138030;-56
2023/12/13 06:18:40;;;;;;;12.30;8.50;;;;;;;5.69;67.08;97696.95;234424;214;147542;-57
2023/12/13 06:23:43;;;;;;;14.50;9.00;;;;;;;5.68;67.14;97704.27;234111;212;138873;-58
2023/12/13 06:28:46;;;;;;;15.50;9.30;;;;;;;5.68;67.18;97697.20;234528;214;136687;-59
2023/12/13 06:33:49;;;;;;;13.30;8.90;;;;;;;5.67;67.29;97689.18;234421;213;147800;-54
2023/12/13 06:38:53;;;;;;;12.90;8.60;;;;;;;5.66;67.35;97688.35;234500;214;141006;-56
2023/12/13 06:43:56;;;;;;;13.30;8.40;;;;;;;5.64;67.41;97685.84;234365;214;138886;-57
2023/12/13 06:49:00;;;;;;;12.50;8.60;;;;;;;5.62;67.47;97676.80;234451;215;147551;-56
2023/12/13 06:54:03;;;;;;;58.10;43.20;;;;;;;5.61;67.83;97676.16;234430;214;139327;-58
2023/12/13 06:59:07;;;;;;;14.40;9.50;;;;;;;5.73;68.08;97669.99;234632;214;137587;-56
2023/12/13 07:04:10;;;;;;;13.00;8.20;;;;;;;5.76;67.51;97673.33;234272;215;147598;-59
2023/12/13 07:09:18;;;;;;;12.80;8.40;;;;;;;5.77;67.34;97679.02;234214;207;144344;-60
2023/12/13 07:14:21;;;;;;;10.90;7.50;;;;;;;5.83;67.45;97655.08;234447;213;137454;-59
2023/12/13 07:19:24;;;;;;;9.90;6.80;;;;;;;5.87;67.32;97661.69;234376;208;147495;-59
2023/12/13 07:24:28;;;;;;;9.80;6.50;;;;;;;5.89;67.20;97669.62;234357;215;138768;-59
2023/12/13 07:29:32;;;;;;;10.00;6.50;;;;;;;5.90;67.14;97674.30;234531;212;136951;-59
2023/12/13 07:34:36;;;;;;;9.90;6.30;;;;;;;5.90;67.36;97659.50;234413;214;147651;-57
2023/12/13 07:39:40;;;;;;;8.90;4.20;;;;;;;5.92;67.62;97655.20;234337;215;140259;-59
2023/12/13 07:44:45;;;;;;;9.70;6.20;;;;;;;5.91;67.88;97651.19;234505;214;137084;-58
2023/12/13 07:49:48;;;;;;;15.30;6.60;;;;;;;5.94;68.07;97653.86;234390;213;148927;-59
2023/12/13 07:54:52;;;;;;;11.60;6.40;;;;;;;5.92;68.40;97661.34;234077;213;138937;-59
2023/12/13 07:59:55;;;;;;;8.90;5.80;;;;;;;5.89;68.83;97664.89;234476;212;136710;-59
2023/12/13 08:04:58;;;;;;;596.50;423.20;;;;;;;5.92;69.97;97662.70;234326;213;147482;-62
2023/12/13 08:10:07;;;;;;;15.10;10.00;;;;;;;6.07;69.62;97655.95;234057;208;139588;-60
2023/12/13 08:15:11;;;;;;;10.00;6.40;;;;;;;6.10;69.06;97639.57;234382;213;139913;-60
2023/12/13 08:20:14;;;;;;;9.40;6.30;;;;;;;6.18;69.01;97639.10;234307;214;148515;-59
2023/12/13 08:25:17;;;;;;;10.80;6.40;;;;;;;6.29;69.02;97634.43;234341;208;141083;-58
2023/12/13 08:30:21;;;;;;;10.10;6.40;;;;;;;6.35;68.65;97622.71;234438;212;137575;-59
2023/12/13 08:35:26;;;;;;;9.60;6.30;;;;;;;6.40;68.48;97610.96;234535;213;147595;-59
2023/12/13 08:40:29;;;;;;;11.30;7.10;;;;;;;6.43;68.58;97600.20;234405;214;140035;-58
2023/12/13 08:45:32;;;;;;;13.70;8.20;;;;;;;6.42;68.36;97593.77;234447;214;136994;-60
2023/12/13 08:50:35;;;;;;;12.90;7.90;;;;;;;6.38;68.46;97590.45;234353;208;147475;-57
2023/12/13 08:55:39;;;;;;;13.30;7.50;;;;;;;6.35;68.65;97596.50;234098;212;140320;-59
2023/12/13 09:00:42;;;;;;;12.60;7.10;;;;;;;6.36;68.74;97605.80;234074;212;137587;-58
2023/12/13 09:05:45;;;;;;;12.70;7.20;;;;;;;6.37;68.93;97606.75;234471;212;148001;-58
2023/12/13 09:10:48;;;;;;;12.10;7.30;;;;;;;6.38;69.13;97606.88;234372;213;138661;-58
2023/12/13 09:15:52;;;;;;;10.60;6.80;;;;;;;6.38;69.33;97597.49;234447;208;136732;-58
2023/12/13 09:20:55;;;;;;;11.90;6.80;;;;;;;6.40;69.55;97595.09;234310;212;147525;-61
2023/12/13 09:25:59;;;;;;;28.10;15.90;;;;;;;6.50;70.11;97589.85;234052;212;139596;-59
2023/12/13 09:31:03;;;;;;;9.80;6.50;;;;;;;6.62;69.62;97589.77;234410;207;141689;-59
2023/12/13 09:36:08;;;;;;;13.80;7.10;;;;;;;6.69;69.64;97588.87;234268;210;148684;-59
2023/12/13 09:41:13;;;;;;;10.80;7.10;;;;;;;6.74;69.44;97590.81;233927;211;139573;-58
2023/12/13 09:46:19;;;;;;;12.70;7.20;;;;;;;6.77;69.64;97587.30;234262;209;138230;-56
2023/12/13 09:51:23;;;;;;;11.60;7.20;;;;;;;6.80;69.69;97590.41;234301;213;148385;-57
2023/12/13 09:56:26;;;;;;;13.50;8.00;;;;;;;6.82;69.83;97579.52;234269;212;138767;-58
2023/12/13 10:01:29;;;;;;;14.60;8.30;;;;;;;6.85;69.72;97586.55;234297;209;137522;-57
2023/12/13 10:06:33;;;;;;;13.80;9.10;;;;;;;6.84;69.78;97579.73;234394;208;147850;-58
2023/12/13 10:11:37;;;;;;;19.10;13.50;;;;;;;6.90;70.31;97576.00;234452;213;138555;-58
2023/12/13 10:16:40;;;;;;;13.60;8.90;;;;;;;6.93;69.93;97568.69;233700;208;136926;-58
2023/12/13 10:21:48;;;;;;;12.40;8.60;;;;;;;6.89;70.15;97568.29;234279;214;147989;-57
2023/12/13 10:26:51;;;;;;;11.10;7.90;;;;;;;6.85;70.40;97574.15;234272;212;139015;-59
2023/12/13 10:31:59;;;;;;;13.50;8.30;;;;;;;6.87;70.48;97564.90;234550;211;138172;-57
2023/12/13 10:37:04;;;;;;;14.50;9.80;;;;;;;6.94;70.56;97559.84;234359;212;147676;-59
2023/12/13 10:42:08;;;;;;;16.00;9.70;;;;;;;6.99;70.56;97550.48;234410;213;140190;-59
2023/12/13 10:47:13;;;;;;;14.90;10.10;;;;;;;7.02;70.60;97547.40;234412;213;138184;-58
2023/12/13 10:52:19;;;;;;;16.40;10.30;;;;;;;7.05;70.40;97549.14;234454;213;148890;-61
2023/12/13 10:57:22;;;;;;;15.80;10.00;;;;;;;7.03;70.54;97538.40;234365;212;138804;-57
2023/12/13 11:02:27;;;;;;;17.30;10.50;;;;;;;7.00;70.84;97529.98;234568;214;137633;-58
2023/12/13 11:07:42;;;;;;;16.70;11.00;;;;;;;6.98;70.84;97524.12;234461;214;147522;-59
2023/12/13 11:12:49;;;;;;;15.70;11.10;;;;;;;6.95;71.01;97515.33;234509;212;138971;-59
2023/12/13 11:17:55;;;;;;;16.50;11.40;;;;;;;6.93;71.19;97503.29;234502;213;137694;-59
2023/12/13 11:22:59;;;;;;;18.30;12.30;;;;;;;6.90;71.34;97492.40;234401;212;147725;-57
2023/12/13 11:28:02;;;;;;;19.10;12.30;;;;;;;6.89;71.67;97473.98;234439;214;139351;-59
2023/12/13 11:33:12;;;;;;;17.30;10.70;;;;;;;6.93;71.84;97467.38;234331;209;139106;-59
2023/12/13 11:38:16;;;;;;;18.20;11.60;;;;;;;7.02;71.80;97461.59;234213;215;148208;-58
2023/12/13 11:43:20;;;;;;;18.40;10.90;;;;;;;7.10;71.84;97457.61;234532;212;139259;-59
2023/12/13 11:48:23;;;;;;;18.20;11.70;;;;;;;7.18;71.80;97452.82;234552;212;138318;-61
2023/12/13 11:53:27;;;;;;;22.30;11.20;;;;;;;7.26;71.75;97437.77;234638;214;148038;-59
2023/12/13 11:58:30;;;;;;;18.30;11.40;;;;;;;7.32;71.74;97434.27;234283;212;138653;-58
2023/12/13 12:03:34;;;;;;;17.20;10.70;;;;;;;7.43;71.82;97432.98;234244;215;137960;-58
2023/12/13 12:08:37;;;;;;;15.30;10.30;;;;;;;7.45;71.70;97435.83;234338;212;148524;-59
2023/12/13 12:13:43;;;;;;;16.00;10.20;;;;;;;7.46;71.92;97434.65;234386;213;139298;-59
2023/12/13 12:18:47;;;;;;;16.40;9.70;;;;;;;7.49;72.01;97435.83;234400;215;138128;-58
2023/12/13 12:23:50;;;;;;;13.50;8.80;;;;;;;7.50;72.06;97431.73;234486;214;148258;-59
2023/12/13 12:28:54;;;;;;;13.20;9.40;;;;;;;7.51;72.07;97431.61;234479;212;140131;-59
2023/12/13 12:33:59;;;;;;;14.40;9.30;;;;;;;7.57;71.94;97444.94;234325;215;138151;-57
2023/12/13 12:39:02;;;;;;;15.50;10.00;;;;;;;7.62;71.66;97459.40;234397;214;147770;-59
2023/12/13 12:44:07;;;;;;;20.00;10.60;;;;;;;7.66;71.27;97467.77;234374;212;140332;-59
2023/12/13 12:49:10;;;;;;;14.30;9.30;;;;;;;7.68;71.27;97476.99;234496;214;137779;-60
2023/12/13 12:54:17;;;;;;;13.40;8.90;;;;;;;7.63;71.38;97470.96;234492;214;147510;-58
2023/12/13 12:59:21;;;;;;;17.00;9.50;;;;;;;7.57;71.39;97463.27;234616;212;138479;-60
2023/12/13 13:04:25;;;;;;;12.80;9.20;;;;;;;7.54;71.63;97463.15;234445;208;137318;-59
2023/12/13 13:09:29;;;;;;;12.20;8.70;;;;;;;7.52;71.49;97468.61;234422;214;147479;-59
2023/12/13 13:14:32;;;;;;;16.20;9.60;;;;;;;7.50;71.73;97474.78;234380;214;138581;-58
2023/12/13 13:19:36;;;;;;;12.20;8.30;;;;;;;7.46;71.63;97476.65;234391;213;138338;-62
2023/12/13 13:24:39;;;;;;;12.60;8.30;;;;;;;7.46;71.57;97473.83;234365;215;147485;-62
2023/12/13 13:29:42;;;;;;;12.90;8.90;;;;;;;7.52;71.34;97469.19;234425;213;139246;-61
2023/12/13 13:34:46;;;;;;;14.30;9.30;;;;;;;7.56;71.43;97472.87;234013;212;137817;-61
2023/12/13 13:39:49;;;;;;;15.10;9.40;;;;;;;7.59;71.31;97467.52;234265;214;147475;-62
2023/12/13 13:44:52;;;;;;;15.60;10.10;;;;;;;7.58;71.27;97465.88;234309;215;138837;-62
2023/12/13 13:49:56;;;;;;;17.80;10.20;;;;;;;7.56;71.18;97467.79;234065;208;136889;-61
2023/12/13 13:54:59;;;;;;;15.90;11.30;;;;;;;7.53;71.42;97469.55;233962;208;146770;-61
2023/12/13 14:00:05;;;;;;;15.70;11.60;;;;;;;7.48;71.54;97476.49;234496;213;139358;-63
2023/12/13 14:05:13;;;;;;;17.50;12.00;;;;;;;7.43;71.52;97467.35;234494;213;137545;-61
2023/12/13 14:10:17;;;;;;;18.70;12.40;;;;;;;7.40;71.71;97463.86;234253;212;147612;-61
2023/12/13 14:15:20;;;;;;;17.90;12.20;;;;;;;7.37;71.62;97465.91;234080;212;140243;-61
2023/12/13 14:20:23;;;;;;;20.60;12.60;;;;;;;7.35;71.73;97471.13;233985;212;138138;-61
2023/12/13 14:25:27;;;;;;;18.70;13.10;;;;;;;7.35;71.61;97474.61;234207;208;148623;-60
2023/12/13 14:30:30;;;;;;;20.80;14.10;;;;;;;7.38;71.66;97483.79;234521;211;139261;-61
2023/12/13 14:35:33;;;;;;;21.20;13.70;;;;;;;7.38;71.65;97475.67;234749;207;138219;-60
2023/12/13 14:40:36;;;;;;;21.10;14.00;;;;;;;7.36;71.53;97472.84;234281;212;147621;-56
2023/12/13 14:45:40;;;;;;;21.00;13.80;;;;;;;7.30;71.57;97473.41;234392;211;138842;-55
2023/12/13 14:50:43;;;;;;;21.50;13.90;;;;;;;7.24;71.61;97467.00;234365;212;136940;-55
2023/12/13 14:55:46;;;;;;;22.60;14.00;;;;;;;7.17;71.81;97467.00;234403;214;149489;-56
2023/12/13 15:00:50;;;;;;;19.70;13.80;;;;;;;7.13;71.88;97471.50;234542;211;139480;-56
2023/12/13 15:05:53;;;;;;;20.80;14.00;;;;;;;7.09;71.99;97465.48;234451;211;138429;-57
2023/12/13 15:10:57;;;;;;;17.40;12.10;;;;;;;7.05;72.07;97457.77;234220;212;147427;-58
2023/12/13 15:16:01;;;;;;;19.30;12.40;;;;;;;7.06;72.18;97469.05;234351;208;138754;-56
2023/12/13 15:21:04;;;;;;;20.20;13.70;;;;;;;7.09;72.26;97480.43;234233;213;137640;-55
2023/12/13 15:26:08;;;;;;;17.70;12.70;;;;;;;7.12;72.18;97489.73;234532;208;147876;-57
2023/12/13 15:31:12;;;;;;;19.00;13.30;;;;;;;7.12;72.06;97490.98;234443;208;138808;-57
2023/12/13 15:36:15;;;;;;;18.20;12.10;;;;;;;7.18;72.13;97496.75;234397;208;137577;-57
2023/12/13 15:41:19;;;;;;;18.90;12.40;;;;;;;7.17;71.95;97499.62;234421;208;148190;-56
2023/12/13 15:46:22;;;;;;;16.40;11.80;;;;;;;7.11;71.91;97502.33;234282;212;140066;-57
2023/12/13 15:51:28;;;;;;;17.40;11.90;;;;;;;7.06;72.17;97506.61;234373;212;140305;-57
2023/12/13 15:56:31;;;;;;;16.20;12.50;;;;;;;7.02;72.39;97514.60;234053;213;148773;-56
2023/12/13 16:01:35;;;;;;;16.30;11.80;;;;;;;7.04;72.27;97517.13;233970;207;139834;-57
2023/12/13 16:06:38;;;;;;;16.90;12.10;;;;;;;7.01;72.45;97519.80;234367;207;137431;-56
2023/12/13 16:11:41;;;;;;;18.90;12.50;;;;;;;7.01;72.52;97515.64;234044;211;147600;-57
2023/12/13 16:16:45;;;;;;;24.00;15.50;;;;;;;7.05;72.58;97516.66;234358;213;138694;-55
2023/12/13 16:21:48;;;;;;;23.40;15.40;;;;;;;7.10;72.39;97515.66;233885;210;137188;-57
2023/12/13 16:26:52;;;;;;;22.80;16.20;;;;;;;7.14;72.33;97517.30;234332;211;147580;-57
2023/12/13 16:31:56;;;;;;;21.90;15.40;;;;;;;7.14;72.13;97505.32;234293;212;140411;-56
2023/12/13 16:36:59;;;;;;;26.00;17.00;;;;;;;7.13;72.31;97501.17;234342;206;138237;-55
2023/12/13 16:42:03;;;;;;;24.50;17.10;;;;;;;7.06;72.38;97505.33;234601;207;147629;-55
2023/12/13 16:47:06;;;;;;;26.90;17.60;;;;;;;7.03;72.50;97510.30;234406;213;153715;-53
2023/12/13 16:52:17;;;;;;;25.40;17.70;;;;;;;6.99;72.64;97511.13;234449;211;138061;-54
2023/12/13 16:57:21;;;;;;;26.40;18.30;;;;;;;6.95;72.68;97515.15;234216;208;148160;-55
2023/12/13 17:02:25;;;;;;;29.00;18.50;;;;;;;6.95;72.88;97517.77;234453;207;138777;-57
2023/12/13 17:07:47;;;;;;;26.20;18.00;;;;;;;6.99;72.84;97519.61;234459;211;137807;-55
2023/12/13 17:12:51;;;;;;;29.00;20.60;;;;;;;7.03;72.84;97515.64;234238;211;147641;-56
2023/12/13 17:17:54;;;;;;;30.50;21.70;;;;;;;7.06;72.92;97510.65;234552;212;140086;-57
2023/12/13 17:22:57;;;;;;;33.10;21.40;;;;;;;7.07;72.76;97500.69;234241;212;140715;-57
2023/12/13 17:28:01;;;;;;;31.30;22.50;;;;;;;7.09;72.85;97505.14;234435;212;148407;-56
2023/12/13 17:33:04;;;;;;;39.30;24.30;;;;;;;7.09;72.70;97503.92;234402;212;139043;-57
2023/12/13 17:38:08;;;;;;;36.30;24.80;;;;;;;7.03;72.83;97504.30;234348;208;137617;-58
2023/12/13 17:43:12;;;;;;;42.00;27.50;;;;;;;7.02;72.91;97498.74;234411;211;147335;-57
2023/12/13 17:48:15;;;;;;;45.50;27.80;;;;;;;7.01;72.83;97501.35;234350;212;137980;-56
2023/12/13 17:53:19;;;;;;;42.70;25.80;;;;;;;6.98;73.03;97500.48;234156;207;137004;-56
2023/12/13 17:58:22;;;;;;;41.60;26.70;;;;;;;6.98;72.98;97498.52;234457;211;147533;-59
2023/12/13 18:03:26;;;;;;;41.80;28.30;;;;;;;7.06;73.05;97495.29;234346;213;139740;-55
2023/12/13 18:08:29;;;;;;;46.30;28.80;;;;;;;7.13;72.77;97494.13;234382;211;137237;-54
2023/12/13 18:13:32;;;;;;;45.50;28.50;;;;;;;7.12;72.73;97498.52;234268;207;147406;-61
2023/12/13 18:18:36;;;;;;;46.10;29.90;;;;;;;7.10;72.59;97497.47;234536;212;267985;-57
2023/12/13 18:23:39;;;;;;;49.60;30.30;;;;;;;7.63;79.00;97487.98;234427;213;137702;-53
2023/12/13 18:28:43;;;;;;;230.00;141.90;;;;;;;8.36;72.45;97471.73;234374;213;148309;-56
2023/12/13 18:33:46;;;;;;;62.20;37.10;;;;;;;8.11;71.24;97473.50;234326;208;140440;-56
2023/12/13 18:38:49;;;;;;;62.90;36.00;;;;;;;7.86;70.93;97473.45;234299;212;137061;-57
2023/12/13 18:43:52;;;;;;;107.20;68.10;;;;;;;7.67;71.10;97478.13;234308;212;147702;-56
2023/12/13 18:48:55;;;;;;;62.70;36.70;;;;;;;7.57;71.52;97477.10;234200;215;138889;-56
2023/12/13 18:53:59;;;;;;;65.80;37.00;;;;;;;7.38;71.43;97475.11;234584;212;137304;-56
2023/12/13 18:59:03;;;;;;;71.40;37.90;;;;;;;7.23;71.75;97474.10;234188;208;147436;-53
2023/12/13 19:04:06;;;;;;;66.40;37.50;;;;;;;7.10;71.89;97485.34;234170;213;139523;-56
2023/12/13 19:09:10;;;;;;;66.40;36.40;;;;;;;6.99;72.36;97494.17;234304;211;137462;-57
2023/12/13 19:14:13;;;;;;;68.80;37.70;;;;;;;6.92;72.68;97498.27;234230;208;147526;-56
2023/12/13 19:19:17;;;;;;;537.10;395.70;;;;;;;6.94;73.78;97511.14;234236;208;139914;-58
2023/12/13 19:24:24;;;;;;;66.00;37.20;;;;;;;7.06;73.51;97517.86;234252;213;139530;-57
2023/12/13 19:29:28;;;;;;;65.10;37.60;;;;;;;7.02;72.84;97523.11;234414;212;147544;-55
2023/12/13 19:34:31;;;;;;;62.00;35.50;;;;;;;7.02;72.75;97522.58;234280;212;140943;-58
2023/12/13 19:39:40;;;;;;;63.50;36.00;;;;;;;7.02;72.56;97524.50;234256;213;137050;-58
2023/12/13 19:44:43;;;;;;;61.90;35.60;;;;;;;6.97;72.57;97531.36;234307;212;147562;-56
2023/12/13 19:49:46;;;;;;;60.80;33.80;;;;;;;6.91;72.83;97535.39;234516;212;139466;-57
2023/12/13 19:54:51;;;;;;;57.40;33.40;;;;;;;6.89;73.00;97546.98;234019;209;137660;-58
2023/12/13 19:59:55;;;;;;;57.80;33.50;;;;;;;6.86;72.90;97547.70;234246;213;149915;-56
2023/12/13 20:04:58;;;;;;;52.80;31.50;;;;;;;6.81;73.13;97547.34;234111;213;139007;-57
2023/12/13 20:10:02;;;;;;;288.80;182.70;;;;;;;6.83;73.81;97545.95;234118;215;137010;-56
2023/12/13 20:15:08;;;;;;;56.00;32.70;;;;;;;6.99;73.76;97544.81;234290;215;147963;-55
2023/12/13 20:20:12;;;;;;;57.90;33.10;;;;;;;6.95;73.09;97544.39;234136;213;139470;-57
2023/12/13 20:25:15;;;;;;;56.30;32.10;;;;;;;6.97;72.96;97543.92;233739;212;137560;-56
2023/12/13 20:30:18;;;;;;;63.80;38.10;;;;;;;6.99;73.28;97549.58;233503;212;147642;-57
2023/12/13 20:35:22;;;;;;;51.40;31.50;;;;;;;7.01;72.95;97561.77;234097;209;139073;-58
2023/12/13 20:40:25;;;;;;;48.60;28.60;;;;;;;6.96;72.93;97563.20;234361;212;138099;-58
2023/12/13 20:45:28;;;;;;;77.70;47.10;;;;;;;6.96;73.65;97573.77;234384;212;148448;-59
2023/12/13 20:50:32;;;;;;;48.00;29.00;;;;;;;6.97;73.14;97578.29;234059;212;139125;-57
2023/12/13 20:55:35;;;;;;;47.70;28.10;;;;;;;6.91;73.09;97577.33;234045;212;137601;-57
2023/12/13 21:00:40;;;;;;;50.20;28.10;;;;;;;6.85;73.20;97584.09;234425;208;148503;-57
2023/12/13 21:05:45;;;;;;;43.60;25.90;;;;;;;6.81;73.41;97591.95;234479;212;139277;-57
2023/12/13 21:10:48;;;;;;;50.00;27.40;;;;;;;6.84;73.54;97592.55;234056;207;141197;-58
2023/12/13 21:15:52;;;;;;;52.00;29.60;;;;;;;6.88;73.47;97602.32;234552;208;147545;-58
2023/12/13 21:20:55;;;;;;;57.00;29.20;;;;;;;6.87;73.49;97604.50;234468;212;140438;-59
2023/12/13 21:25:59;;;;;;;60.20;30.10;;;;;;;6.86;73.67;97612.88;234387;208;136939;-58
2023/12/13 21:31:03;;;;;;;59.60;30.10;;;;;;;6.84;73.85;97622.17;234048;214;147493;-58
2023/12/13 21:36:06;;;;;;;59.90;29.30;;;;;;;6.80;74.13;97623.87;233969;212;139037;-60
2023/12/13 21:41:18;;;;;;;61.90;29.40;;;;;;;6.77;74.26;97628.36;234372;215;136541;-59
2023/12/13 21:46:24;;;;;;;71.90;31.90;;;;;;;6.71;74.61;97629.10;234621;212;147637;-58
2023/12/13 21:51:27;;;;;;;64.20;30.50;;;;;;;6.66;74.89;97625.95;234335;212;138840;-57
2023/12/13 21:56:31;;;;;;;67.10;29.90;;;;;;;6.65;74.98;97623.86;234477;213;138214;-60
2023/12/13 22:01:34;;;;;;;58.90;30.50;;;;;;;6.68;75.30;97622.80;234084;211;147418;-60
2023/12/13 22:06:40;;;;;;;59.50;30.30;;;;;;;6.71;75.22;97617.82;234328;212;139638;-59
2023/12/13 22:11:44;;;;;;;56.20;27.40;;;;;;;6.75;75.31;97621.63;234213;211;138288;-59
2023/12/13 22:16:49;;;;;;;61.10;29.70;;;;;;;6.77;75.18;97617.73;234324;213;148189;-60
2023/12/13 22:21:53;;;;;;;61.80;28.10;;;;;;;6.75;75.24;97615.41;233889;213;139043;-57
2023/12/13 22:26:56;;;;;;;61.60;26.60;;;;;;;6.74;75.32;97617.83;234433;208;137110;-57
2023/12/13 22:31:59;;;;;;;59.40;26.40;;;;;;;6.73;75.33;97618.20;234467;212;148944;-58
2023/12/13 22:37:03;;;;;;;53.70;24.50;;;;;;;6.74;75.38;97620.13;234472;213;139775;-58
2023/12/13 22:42:06;;;;;;;50.80;25.20;;;;;;;6.73;75.37;97609.43;234405;210;137593;-60
2023/12/13 22:47:09;;;;;;;54.10;26.70;;;;;;;6.77;75.31;97609.33;234151;212;147692;-58
2023/12/13 22:52:12;;;;;;;55.50;26.30;;;;;;;6.80;75.28;97616.30;233720;212;138455;-57
2023/12/13 22:57:26;;;;;;;51.90;25.70;;;;;;;6.79;75.10;97618.50;233722;212;136974;-59
2023/12/13 23:02:29;;;;;;;54.80;26.30;;;;;;;6.79;75.30;97625.04;234414;213;147558;-58
2023/12/13 23:07:33;;;;;;;54.00;25.10;;;;;;;6.75;75.22;97630.58;234543;212;139898;-58
2023/12/13 23:12:36;;;;;;;56.90;26.40;;;;;;;6.73;75.25;97635.52;234250;211;137811;-59
2023/12/13 23:17:40;;;;;;;53.90;26.10;;;;;;;6.71;75.26;97642.69;233527;212;148359;-58
2023/12/13 23:22:43;;;;;;;54.00;25.70;;;;;;;6.64;75.39;97647.23;233762;207;138816;-59